sensor_id;sensor_type;location;lat;lon;timestamp;pressure;altitude;pressure_sealevel;temperature;humidity
47738;BME280;33502;47.182;27.506;2023-02-19T06:17:48;99898.88;;;5.62;100.00
47738;BME280;33502;47.182;27.506;2023-02-19T06:20:14;99890.97;;;5.64;100.00
47738;BME280;33502;47.182;27.506;2023-02-19T06:22:40;99896.06;;;5.68;100.00
47738;BME280;33502;47.182;27.506;2023-02-19T06:25:06;99885.41;;;5.73;100.00
47738;BME280;33502;47.182;27.506;2023-02-19T06:27:37;99905.59;;;5.73;100.00
47738;BME280;33502;47.182;27.506;2023-02-19T06:30:04;99910.34;;;5.89;100.00
47738;BME280;33502;47.182;27.506;2023-02-19T06:32:30;99914.19;;;5.78;100.00
47738;BME280;33502;47.182;27.506;2023-02-19T06:34:55;99921.44;;;5.69;100.00
47738;BME280;33502;47.182;27.506;2023-02-19T06:37:21;99905.94;;;5.60;100.00
47738;BME280;33502;47.182;27.506;2023-02-19T06:39:47;99892.91;;;5.57;100.00
47738;BME280;33502;47.182;27.506;2023-02-19T06:42:12;99882.44;;;5.56;100.00
47738;BME280;33502;47.182;27.506;2023-02-19T06:44:38;99874.69;;;5.51;100.00
47738;BME280;33502;47.182;27.506;2023-02-19T06:47:04;99874.69;;;5.51;100.00
47738;BME280;33502;47.182;27.506;2023-02-19T06:49:30;99866.09;;;5.46;100.00
47738;BME280;33502;47.182;27.506;2023-02-19T06:51:55;99845.34;;;5.37;100.00
47738;BME280;33502;47.182;27.506;2023-02-19T06:54:21;99827.97;;;5.33;100.00
47738;BME280;33502;47.182;27.506;2023-02-19T06:56:47;99825.25;;;5.36;100.00
47738;BME280;33502;47.182;27.506;2023-02-19T06:59:14;99815.50;;;5.41;100.00
47738;BME280;33502;47.182;27.506;2023-02-19T07:01:44;99812.25;;;5.61;100.00
47738;BME280;33502;47.182;27.506;2023-02-19T07:04:10;99812.63;;;5.77;100.00
47738;BME280;33502;47.182;27.506;2023-02-19T07:06:37;99800.41;;;5.76;100.00
47738;BME280;33502;47.182;27.506;2023-02-19T07:09:04;99794.41;;;6.00;100.00
47738;BME280;33502;47.182;27.506;2023-02-19T07:11:32;99783.34;;;5.89;100.00
47738;BME280;33502;47.182;27.506;2023-02-19T07:14:00;99790.78;;;5.75;100.00
47738;BME280;33502;47.182;27.506;2023-02-19T07:16:26;99794.72;;;5.89;100.00
47738;BME280;33502;47.182;27.506;2023-02-19T07:18:55;99798.31;;;5.87;100.00
47738;BME280;33502;47.182;27.506;2023-02-19T07:21:21;99814.72;;;5.94;100.00
47738;BME280;33502;47.182;27.506;2023-02-19T07:23:47;99820.66;;;6.02;100.00
47738;BME280;33502;47.182;27.506;2023-02-19T07:26:18;99828.47;;;6.30;100.00
47738;BME280;33502;47.182;27.506;2023-02-19T07:28:45;99847.22;;;6.98;100.00
47738;BME280;33502;47.182;27.506;2023-02-19T07:31:12;99846.59;;;9.32;100.00
47738;BME280;33502;47.182;27.506;2023-02-19T07:33:38;99854.72;;;9.48;100.00
47738;BME280;33502;47.182;27.506;2023-02-19T07:36:06;99849.75;;;9.01;100.00
47738;BME280;33502;47.182;27.506;2023-02-19T07:38:32;99853.03;;;9.27;100.00
47738;BME280;33502;47.182;27.506;2023-02-19T07:41:02;99858.28;;;10.41;100.00
47738;BME280;33502;47.182;27.506;2023-02-19T07:43:31;99870.88;;;9.21;100.00
47738;BME280;33502;47.182;27.506;2023-02-19T07:45:57;99875.56;;;8.31;100.00
47738;BME280;33502;47.182;27.506;2023-02-19T07:48:23;99856.50;;;7.79;100.00
47738;BME280;33502;47.182;27.506;2023-02-19T07:50:59;99852.00;;;7.59;100.00
47738;BME280;33502;47.182;27.506;2023-02-19T07:53:26;99837.91;;;7.83;100.00
47738;BME280;33502;47.182;27.506;2023-02-19T07:55:52;99841.06;;;7.46;100.00
47738;BME280;33502;47.182;27.506;2023-02-19T07:58:18;99854.47;;;7.40;100.00
47738;BME280;33502;47.182;27.506;2023-02-19T08:00:44;99859.75;;;9.34;100.00
47738;BME280;33502;47.182;27.506;2023-02-19T08:03:10;99868.13;;;10.00;100.00
47738;BME280;33502;47.182;27.506;2023-02-19T08:05:38;99869.25;;;10.14;100.00
47738;BME280;33502;47.182;27.506;2023-02-19T08:08:06;99861.16;;;9.62;100.00
47738;BME280;33502;47.182;27.506;2023-02-19T08:10:32;99854.06;;;8.62;100.00
47738;BME280;33502;47.182;27.506;2023-02-19T08:13:17;99836.63;;;8.16;100.00
47738;BME280;33502;47.182;27.506;2023-02-19T08:16:11;99829.34;;;8.63;100.00
47738;BME280;33502;47.182;27.506;2023-02-19T08:18:37;99821.78;;;10.47;100.00
47738;BME280;33502;47.182;27.506;2023-02-19T08:21:03;99818.00;;;11.37;100.00
47738;BME280;33502;47.182;27.506;2023-02-19T08:23:29;99823.84;;;12.07;100.00
47738;BME280;33502;47.182;27.506;2023-02-19T08:25:59;99824.50;;;12.43;100.00
47738;BME280;33502;47.182;27.506;2023-02-19T08:28:26;99827.75;;;12.48;100.00
47738;BME280;33502;47.182;27.506;2023-02-19T08:30:52;99819.13;;;13.03;100.00
47738;BME280;33502;47.182;27.506;2023-02-19T08:33:20;99822.19;;;13.40;100.00
47738;BME280;33502;47.182;27.506;2023-02-19T08:35:46;99826.53;;;13.27;100.00
47738;BME280;33502;47.182;27.506;2023-02-19T08:38:12;99829.88;;;12.71;100.00
47738;BME280;33502;47.182;27.506;2023-02-19T08:40:39;99832.91;;;12.65;100.00
47738;BME280;33502;47.182;27.506;2023-02-19T08:43:07;99828.97;;;12.87;100.00
47738;BME280;33502;47.182;27.506;2023-02-19T08:45:36;99834.22;;;12.12;100.00
47738;BME280;33502;47.182;27.506;2023-02-19T08:48:03;99854.16;;;11.38;100.00
47738;BME280;33502;47.182;27.506;2023-02-19T08:50:29;99856.25;;;10.98;100.00
47738;BME280;33502;47.182;27.506;2023-02-19T08:52:55;99852.06;;;10.94;100.00
47738;BME280;33502;47.182;27.506;2023-02-19T08:55:21;99842.81;;;11.03;100.00
47738;BME280;33502;47.182;27.506;2023-02-19T08:57:46;99837.09;;;11.10;100.00
47738;BME280;33502;47.182;27.506;2023-02-19T09:00:12;99832.84;;;11.24;100.00
47738;BME280;33502;47.182;27.506;2023-02-19T09:02:38;99818.78;;;11.39;100.00
47738;BME280;33502;47.182;27.506;2023-02-19T09:05:04;99818.19;;;11.50;100.00
47738;BME280;33502;47.182;27.506;2023-02-19T09:07:30;99814.13;;;11.27;100.00
47738;BME280;33502;47.182;27.506;2023-02-19T09:09:56;99813.69;;;11.19;100.00
47738;BME280;33502;47.182;27.506;2023-02-19T09:12:23;99806.09;;;11.28;100.00
47738;BME280;33502;47.182;27.506;2023-02-19T09:14:49;99803.88;;;11.36;100.00
47738;BME280;33502;47.182;27.506;2023-02-19T09:17:16;99787.81;;;11.55;100.00
47738;BME280;33502;47.182;27.506;2023-02-19T09:19:41;99786.34;;;11.34;100.00
47738;BME280;33502;47.182;27.506;2023-02-19T09:22:07;99788.25;;;10.98;100.00
47738;BME280;33502;47.182;27.506;2023-02-19T09:24:33;99790.03;;;10.98;100.00
47738;BME280;33502;47.182;27.506;2023-02-19T09:26:59;99775.63;;;11.20;100.00
47738;BME280;33502;47.182;27.506;2023-02-19T09:29:26;99768.84;;;11.31;100.00
47738;BME280;33502;47.182;27.506;2023-02-19T09:31:56;99766.53;;;11.41;100.00
47738;BME280;33502;47.182;27.506;2023-02-19T09:34:23;99765.84;;;11.53;100.00
47738;BME280;33502;47.182;27.506;2023-02-19T09:36:49;99767.56;;;11.54;100.00
47738;BME280;33502;47.182;27.506;2023-02-19T09:39:15;99764.22;;;11.51;100.00
47738;BME280;33502;47.182;27.506;2023-02-19T09:41:47;99768.16;;;11.44;100.00
47738;BME280;33502;47.182;27.506;2023-02-19T09:44:32;99771.41;;;11.65;100.00
47738;BME280;33502;47.182;27.506;2023-02-19T09:47:00;99786.09;;;11.86;100.00
47738;BME280;33502;47.182;27.506;2023-02-19T09:49:35;99789.47;;;12.06;100.00
47738;BME280;33502;47.182;27.506;2023-02-19T09:52:31;99792.28;;;11.87;100.00
47738;BME280;33502;47.182;27.506;2023-02-19T09:55:00;99790.72;;;11.67;100.00
47738;BME280;33502;47.182;27.506;2023-02-19T09:57:29;99796.81;;;11.37;100.00
47738;BME280;33502;47.182;27.506;2023-02-19T10:02:26;99800.09;;;11.90;100.00
47738;BME280;33502;47.182;27.506;2023-02-19T10:04:54;99802.72;;;11.90;100.00
47738;BME280;33502;47.182;27.506;2023-02-19T10:07:36;99803.22;;;11.65;100.00
47738;BME280;33502;47.182;27.506;2023-02-19T10:10:21;99799.66;;;11.16;100.00
47738;BME280;33502;47.182;27.506;2023-02-19T10:12:55;99810.13;;;11.02;100.00
47738;BME280;33502;47.182;27.506;2023-02-19T10:15:44;99799.34;;;10.89;100.00
47738;BME280;33502;47.182;27.506;2023-02-19T10:18:11;99789.59;;;10.90;100.00
47738;BME280;33502;47.182;27.506;2023-02-19T10:20:37;99785.16;;;10.90;100.00
47738;BME280;33502;47.182;27.506;2023-02-19T10:23:05;99786.06;;;11.07;100.00
47738;BME280;33502;47.182;27.506;2023-02-19T10:25:33;99773.25;;;11.31;100.00
47738;BME280;33502;47.182;27.506;2023-02-19T10:28:00;99773.53;;;11.74;100.00
47738;BME280;33502;47.182;27.506;2023-02-19T10:30:33;99781.00;;;11.99;100.00
47738;BME280;33502;47.182;27.506;2023-02-19T10:33:18;99770.63;;;12.41;100.00
47738;BME280;33502;47.182;27.506;2023-02-19T10:38:24;99737.00;;;12.99;100.00
47738;BME280;33502;47.182;27.506;2023-02-19T10:41:19;99725.91;;;13.21;100.00
47738;BME280;33502;47.182;27.506;2023-02-19T10:46:28;99728.34;;;13.24;99.67
47738;BME280;33502;47.182;27.506;2023-02-19T10:49:03;99729.03;;;13.42;100.00
47738;BME280;33502;47.182;27.506;2023-02-19T10:51:40;99728.72;;;13.46;99.66
47738;BME280;33502;47.182;27.506;2023-02-19T10:54:18;99722.88;;;12.84;100.00
47738;BME280;33502;47.182;27.506;2023-02-19T10:56:45;99715.03;;;12.23;100.00
47738;BME280;33502;47.182;27.506;2023-02-19T10:59:23;99700.16;;;11.90;100.00
47738;BME280;33502;47.182;27.506;2023-02-19T11:04:19;99699.03;;;11.31;100.00
47738;BME280;33502;47.182;27.506;2023-02-19T11:06:45;99695.97;;;11.23;100.00
47738;BME280;33502;47.182;27.506;2023-02-19T11:09:36;99697.66;;;10.92;100.00
47738;BME280;33502;47.182;27.506;2023-02-19T11:12:03;99691.19;;;10.64;100.00
47738;BME280;33502;47.182;27.506;2023-02-19T11:14:31;99690.44;;;10.27;100.00
47738;BME280;33502;47.182;27.506;2023-02-19T11:16:59;99692.31;;;9.90;100.00
47738;BME280;33502;47.182;27.506;2023-02-19T11:19:41;99690.56;;;9.72;100.00
47738;BME280;33502;47.182;27.506;2023-02-19T11:22:19;99690.31;;;9.59;100.00
47738;BME280;33502;47.182;27.506;2023-02-19T11:24:52;99684.00;;;9.44;100.00
47738;BME280;33502;47.182;27.506;2023-02-19T11:27:21;99677.66;;;9.29;100.00
47738;BME280;33502;47.182;27.506;2023-02-19T11:29:48;99676.59;;;9.14;100.00
47738;BME280;33502;47.182;27.506;2023-02-19T11:32:23;99672.03;;;8.99;100.00
47738;BME280;33502;47.182;27.506;2023-02-19T11:34:50;99674.19;;;8.91;100.00
47738;BME280;33502;47.182;27.506;2023-02-19T11:37:20;99670.59;;;8.92;100.00
47738;BME280;33502;47.182;27.506;2023-02-19T11:39:47;99662.69;;;8.92;100.00
47738;BME280;33502;47.182;27.506;2023-02-19T11:42:20;99664.47;;;8.91;100.00
47738;BME280;33502;47.182;27.506;2023-02-19T11:45:24;99662.75;;;8.90;100.00
47738;BME280;33502;47.182;27.506;2023-02-19T11:50:48;99661.13;;;8.88;100.00
47738;BME280;33502;47.182;27.506;2023-02-19T11:53:34;99659.69;;;8.80;100.00
47738;BME280;33502;47.182;27.506;2023-02-19T11:59:51;99661.59;;;8.77;100.00
47738;BME280;33502;47.182;27.506;2023-02-19T12:13:37;99634.44;;;8.94;100.00
47738;BME280;33502;47.182;27.506;2023-02-19T12:21:59;99619.47;;;8.94;100.00
47738;BME280;33502;47.182;27.506;2023-02-19T12:24:41;99613.47;;;8.91;100.00
47738;BME280;33502;47.182;27.506;2023-02-19T12:35:31;99620.97;;;8.62;100.00
47738;BME280;33502;47.182;27.506;2023-02-19T12:38:38;99613.94;;;8.61;100.00
47738;BME280;33502;47.182;27.506;2023-02-19T12:41:28;99605.31;;;8.57;100.00
47738;BME280;33502;47.182;27.506;2023-02-19T12:43:59;99599.97;;;8.59;100.00
47738;BME280;33502;47.182;27.506;2023-02-19T12:49:03;99603.28;;;8.64;100.00
47738;BME280;33502;47.182;27.506;2023-02-19T12:54:09;99582.00;;;8.67;100.00
47738;BME280;33502;47.182;27.506;2023-02-19T12:56:46;99587.22;;;8.69;100.00
47738;BME280;33502;47.182;27.506;2023-02-19T12:59:34;99579.34;;;8.67;100.00
47738;BME280;33502;47.182;27.506;2023-02-19T13:02:19;99576.22;;;8.59;100.00
47738;BME280;33502;47.182;27.506;2023-02-19T13:05:18;99578.38;;;8.51;100.00
47738;BME280;33502;47.182;27.506;2023-02-19T13:08:04;99578.88;;;8.38;100.00
47738;BME280;33502;47.182;27.506;2023-02-19T13:13:26;99590.13;;;8.23;100.00
47738;BME280;33502;47.182;27.506;2023-02-19T13:16:08;99587.13;;;8.12;100.00
47738;BME280;33502;47.182;27.506;2023-02-19T13:18:45;99582.13;;;8.06;100.00
47738;BME280;33502;47.182;27.506;2023-02-19T13:21:13;99573.53;;;8.00;100.00
47738;BME280;33502;47.182;27.506;2023-02-19T13:24:06;99570.28;;;7.95;100.00
47738;BME280;33502;47.182;27.506;2023-02-19T13:37:19;99579.09;;;7.74;100.00
47738;BME280;33502;47.182;27.506;2023-02-19T13:39:53;99572.19;;;7.71;100.00
47738;BME280;33502;47.182;27.506;2023-02-19T13:42:33;99570.50;;;7.70;100.00
47738;BME280;33502;47.182;27.506;2023-02-19T13:45:02;99549.47;;;7.69;100.00
47738;BME280;33502;47.182;27.506;2023-02-19T13:52:47;99539.91;;;7.66;100.00
47738;BME280;33502;47.182;27.506;2023-02-19T14:00:58;99538.66;;;7.54;100.00
47738;BME280;33502;47.182;27.506;2023-02-19T14:03:28;99540.56;;;7.51;100.00
47738;BME280;33502;47.182;27.506;2023-02-19T14:05:58;99538.94;;;7.48;100.00
47738;BME280;33502;47.182;27.506;2023-02-19T14:11:12;99531.22;;;7.43;100.00
47738;BME280;33502;47.182;27.506;2023-02-19T14:19:21;99520.47;;;7.48;100.00
47738;BME280;33502;47.182;27.506;2023-02-19T14:21:58;99511.53;;;7.52;100.00
47738;BME280;33502;47.182;27.506;2023-02-19T14:24:23;99518.25;;;7.59;100.00
47738;BME280;33502;47.182;27.506;2023-02-19T14:26:50;99505.59;;;7.68;100.00
47738;BME280;33502;47.182;27.506;2023-02-19T14:29:16;99501.69;;;7.76;100.00
47738;BME280;33502;47.182;27.506;2023-02-19T14:31:44;99518.75;;;7.88;100.00
47738;BME280;33502;47.182;27.506;2023-02-19T14:34:19;99512.13;;;7.98;100.00
47738;BME280;33502;47.182;27.506;2023-02-19T14:36:52;99517.22;;;8.03;100.00
47738;BME280;33502;47.182;27.506;2023-02-19T14:39:29;99505.81;;;8.02;100.00
47738;BME280;33502;47.182;27.506;2023-02-19T14:41:59;99504.09;;;8.01;100.00
47738;BME280;33502;47.182;27.506;2023-02-19T14:44:29;99502.53;;;8.16;100.00
47738;BME280;33502;47.182;27.506;2023-02-19T14:47:03;99503.16;;;8.40;100.00
47738;BME280;33502;47.182;27.506;2023-02-19T14:49:33;99501.50;;;8.58;100.00
47738;BME280;33502;47.182;27.506;2023-02-19T14:52:33;99497.72;;;8.45;100.00
47738;BME280;33502;47.182;27.506;2023-02-19T14:55:00;99492.63;;;8.21;100.00
47738;BME280;33502;47.182;27.506;2023-02-19T14:57:42;99496.19;;;8.01;100.00
47738;BME280;33502;47.182;27.506;2023-02-19T15:02:50;99486.78;;;7.75;100.00
47738;BME280;33502;47.182;27.506;2023-02-19T15:05:30;99485.50;;;7.65;100.00
47738;BME280;33502;47.182;27.506;2023-02-19T15:07:58;99471.66;;;7.60;100.00
47738;BME280;33502;47.182;27.506;2023-02-19T15:10:28;99467.34;;;7.59;100.00
47738;BME280;33502;47.182;27.506;2023-02-19T15:12:57;99475.31;;;7.57;100.00
47738;BME280;33502;47.182;27.506;2023-02-19T15:15:27;99470.09;;;7.56;100.00
47738;BME280;33502;47.182;27.506;2023-02-19T15:17:55;99469.53;;;7.49;100.00
47738;BME280;33502;47.182;27.506;2023-02-19T15:20:25;99481.25;;;7.42;100.00
47738;BME280;33502;47.182;27.506;2023-02-19T15:22:53;99472.63;;;7.38;100.00
47738;BME280;33502;47.182;27.506;2023-02-19T15:25:21;99468.47;;;7.33;100.00
47738;BME280;33502;47.182;27.506;2023-02-19T15:27:48;99460.91;;;7.25;100.00
47738;BME280;33502;47.182;27.506;2023-02-19T15:30:23;99464.84;;;7.15;100.00
47738;BME280;33502;47.182;27.506;2023-02-19T15:32:53;99467.94;;;7.04;100.00
47738;BME280;33502;47.182;27.506;2023-02-19T15:35:20;99463.09;;;6.93;100.00
47738;BME280;33502;47.182;27.506;2023-02-19T15:37:48;99463.47;;;6.84;100.00
47738;BME280;33502;47.182;27.506;2023-02-19T15:40:15;99464.72;;;6.75;100.00
47738;BME280;33502;47.182;27.506;2023-02-19T15:42:43;99451.16;;;6.64;100.00
47738;BME280;33502;47.182;27.506;2023-02-19T15:47:54;99455.81;;;6.57;100.00
47738;BME280;33502;47.182;27.506;2023-02-19T15:50:24;99446.25;;;6.55;100.00
47738;BME280;33502;47.182;27.506;2023-02-19T15:55:38;99437.13;;;6.41;100.00
47738;BME280;33502;47.182;27.506;2023-02-19T16:01:04;99445.94;;;6.18;100.00
47738;BME280;33502;47.182;27.506;2023-02-19T16:03:33;99446.34;;;6.07;100.00
47738;BME280;33502;47.182;27.506;2023-02-19T16:06:01;99443.41;;;5.92;100.00
47738;BME280;33502;47.182;27.506;2023-02-19T16:11:00;99444.50;;;5.86;100.00
47738;BME280;33502;47.182;27.506;2023-02-19T16:13:29;99439.09;;;5.91;100.00
47738;BME280;33502;47.182;27.506;2023-02-19T16:15:59;99434.53;;;5.96;100.00
47738;BME280;33502;47.182;27.506;2023-02-19T16:18:28;99433.69;;;5.95;100.00
47738;BME280;33502;47.182;27.506;2023-02-19T16:20:54;99441.91;;;5.84;100.00
47738;BME280;33502;47.182;27.506;2023-02-19T16:23:21;99438.69;;;5.78;100.00
47738;BME280;33502;47.182;27.506;2023-02-19T16:25:59;99438.00;;;5.73;100.00
47738;BME280;33502;47.182;27.506;2023-02-19T16:28:26;99441.66;;;5.68;100.00
47738;BME280;33502;47.182;27.506;2023-02-19T16:31:05;99456.44;;;5.71;100.00
47738;BME280;33502;47.182;27.506;2023-02-19T16:33:45;99450.97;;;5.77;100.00
47738;BME280;33502;47.182;27.506;2023-02-19T16:36:35;99450.38;;;5.69;100.00
47738;BME280;33502;47.182;27.506;2023-02-19T16:41:33;99455.00;;;5.62;100.00
47738;BME280;33502;47.182;27.506;2023-02-19T16:47:02;99454.22;;;5.60;100.00
47738;BME280;33502;47.182;27.506;2023-02-19T16:49:29;99442.78;;;5.61;100.00
47738;BME280;33502;47.182;27.506;2023-02-19T16:51:56;99447.81;;;5.67;100.00
47738;BME280;33502;47.182;27.506;2023-02-19T16:54:23;99445.91;;;5.71;100.00
47738;BME280;33502;47.182;27.506;2023-02-19T16:56:48;99444.56;;;5.84;100.00
47738;BME280;33502;47.182;27.506;2023-02-19T16:59:14;99431.75;;;6.00;100.00
47738;BME280;33502;47.182;27.506;2023-02-19T17:01:40;99431.50;;;6.06;100.00
47738;BME280;33502;47.182;27.506;2023-02-19T17:04:08;99451.25;;;6.17;100.00
47738;BME280;33502;47.182;27.506;2023-02-19T17:06:36;99452.97;;;6.18;100.00
47738;BME280;33502;47.182;27.506;2023-02-19T17:09:05;99456.34;;;6.21;100.00
47738;BME280;33502;47.182;27.506;2023-02-19T17:11:33;99444.06;;;6.22;100.00
47738;BME280;33502;47.182;27.506;2023-02-19T17:13:59;99437.69;;;6.27;100.00
47738;BME280;33502;47.182;27.506;2023-02-19T17:16:27;99451.53;;;6.33;100.00
47738;BME280;33502;47.182;27.506;2023-02-19T17:18:54;99451.97;;;6.44;100.00
47738;BME280;33502;47.182;27.506;2023-02-19T17:21:25;99446.19;;;6.56;100.00
47738;BME280;33502;47.182;27.506;2023-02-19T17:23:51;99452.69;;;6.70;100.00
47738;BME280;33502;47.182;27.506;2023-02-19T17:26:24;99452.88;;;6.85;100.00
47738;BME280;33502;47.182;27.506;2023-02-19T17:28:51;99463.78;;;6.98;100.00
47738;BME280;33502;47.182;27.506;2023-02-19T17:31:16;99452.97;;;7.04;100.00
47738;BME280;33502;47.182;27.506;2023-02-19T17:33:43;99448.97;;;7.16;100.00
47738;BME280;33502;47.182;27.506;2023-02-19T17:36:17;99452.16;;;7.24;100.00
47738;BME280;33502;47.182;27.506;2023-02-19T17:38:43;99452.66;;;7.33;100.00
47738;BME280;33502;47.182;27.506;2023-02-19T17:41:09;99454.19;;;7.38;100.00
47738;BME280;33502;47.182;27.506;2023-02-19T17:43:35;99465.50;;;7.40;100.00
47738;BME280;33502;47.182;27.506;2023-02-19T17:46:00;99464.59;;;7.41;100.00
47738;BME280;33502;47.182;27.506;2023-02-19T17:48:26;99461.88;;;7.43;100.00
47738;BME280;33502;47.182;27.506;2023-02-19T17:50:52;99463.53;;;7.45;100.00
47738;BME280;33502;47.182;27.506;2023-02-19T17:53:18;99466.16;;;7.45;100.00
47738;BME280;33502;47.182;27.506;2023-02-19T17:55:44;99476.69;;;7.45;100.00
47738;BME280;33502;47.182;27.506;2023-02-19T17:58:10;99472.22;;;7.48;100.00
47738;BME280;33502;47.182;27.506;2023-02-19T18:00:35;99473.00;;;7.50;100.00
47738;BME280;33502;47.182;27.506;2023-02-19T18:03:02;99488.81;;;7.50;100.00
47738;BME280;33502;47.182;27.506;2023-02-19T18:05:28;99517.78;;;7.50;100.00
47738;BME280;33502;47.182;27.506;2023-02-19T18:07:54;99535.13;;;7.55;100.00
47738;BME280;33502;47.182;27.506;2023-02-19T18:10:21;99543.19;;;7.71;100.00
47738;BME280;33502;47.182;27.506;2023-02-19T18:12:50;99550.59;;;7.63;100.00
47738;BME280;33502;47.182;27.506;2023-02-19T18:15:19;99542.16;;;7.34;100.00
47738;BME280;33502;47.182;27.506;2023-02-19T18:17:45;99564.38;;;7.05;100.00
47738;BME280;33502;47.182;27.506;2023-02-19T18:20:15;99549.47;;;6.83;100.00
47738;BME280;33502;47.182;27.506;2023-02-19T18:22:42;99548.13;;;6.73;100.00
47738;BME280;33502;47.182;27.506;2023-02-19T18:25:08;99552.00;;;6.63;100.00
47738;BME280;33502;47.182;27.506;2023-02-19T18:27:35;99558.44;;;6.56;100.00
47738;BME280;33502;47.182;27.506;2023-02-19T18:30:01;99579.19;;;6.63;100.00
47738;BME280;33502;47.182;27.506;2023-02-19T18:32:27;99573.75;;;6.68;100.00
47738;BME280;33502;47.182;27.506;2023-02-19T18:34:55;99580.19;;;6.83;100.00
47738;BME280;33502;47.182;27.506;2023-02-19T18:37:22;99584.13;;;6.95;100.00
47738;BME280;33502;47.182;27.506;2023-02-19T18:39:49;99582.03;;;7.03;100.00
47738;BME280;33502;47.182;27.506;2023-02-19T18:42:15;99590.66;;;7.06;100.00
47738;BME280;33502;47.182;27.506;2023-02-19T18:44:42;99589.56;;;7.12;100.00
47738;BME280;33502;47.182;27.506;2023-02-19T18:47:08;99593.88;;;7.15;100.00
47738;BME280;33502;47.182;27.506;2023-02-19T18:49:34;99606.16;;;7.14;100.00
47738;BME280;33502;47.182;27.506;2023-02-19T18:52:00;99609.78;;;7.12;100.00
47738;BME280;33502;47.182;27.506;2023-02-19T18:54:27;99616.81;;;7.11;100.00
47738;BME280;33502;47.182;27.506;2023-02-19T18:56:53;99625.50;;;7.13;100.00
47738;BME280;33502;47.182;27.506;2023-02-19T18:59:19;99630.78;;;7.13;100.00
47738;BME280;33502;47.182;27.506;2023-02-19T19:01:45;99644.78;;;7.14;100.00
47738;BME280;33502;47.182;27.506;2023-02-19T19:04:11;99655.38;;;7.12;100.00
47738;BME280;33502;47.182;27.506;2023-02-19T19:06:37;99664.31;;;7.08;100.00
47738;BME280;33502;47.182;27.506;2023-02-19T19:09:04;99666.41;;;7.00;100.00
47738;BME280;33502;47.182;27.506;2023-02-19T19:11:30;99689.78;;;6.84;100.00
47738;BME280;33502;47.182;27.506;2023-02-19T19:13:56;99710.00;;;6.60;100.00
47738;BME280;33502;47.182;27.506;2023-02-19T19:16:23;99699.06;;;6.22;100.00
47738;BME280;33502;47.182;27.506;2023-02-19T19:18:49;99722.88;;;5.91;100.00
47738;BME280;33502;47.182;27.506;2023-02-19T19:21:15;99720.00;;;5.72;100.00
47738;BME280;33502;47.182;27.506;2023-02-19T19:23:41;99724.03;;;5.54;100.00
47738;BME280;33502;47.182;27.506;2023-02-19T19:26:07;99721.06;;;5.38;100.00
47738;BME280;33502;47.182;27.506;2023-02-19T19:28:33;99729.19;;;5.28;100.00
47738;BME280;33502;47.182;27.506;2023-02-19T19:30:59;99752.22;;;5.20;100.00
47738;BME280;33502;47.182;27.506;2023-02-19T19:33:25;99759.50;;;5.10;100.00
47738;BME280;33502;47.182;27.506;2023-02-19T19:35:51;99756.22;;;5.02;100.00
47738;BME280;33502;47.182;27.506;2023-02-19T19:38:16;99779.16;;;4.96;100.00
47738;BME280;33502;47.182;27.506;2023-02-19T19:40:42;99785.47;;;4.88;100.00
47738;BME280;33502;47.182;27.506;2023-02-19T19:43:08;99795.34;;;4.80;100.00
47738;BME280;33502;47.182;27.506;2023-02-19T19:45:34;99797.31;;;4.72;100.00
47738;BME280;33502;47.182;27.506;2023-02-19T19:48:00;99813.38;;;4.60;100.00
47738;BME280;33502;47.182;27.506;2023-02-19T19:50:26;99817.09;;;4.51;100.00
47738;BME280;33502;47.182;27.506;2023-02-19T19:52:52;99819.03;;;4.43;100.00
47738;BME280;33502;47.182;27.506;2023-02-19T19:55:18;99849.09;;;4.29;100.00
47738;BME280;33502;47.182;27.506;2023-02-19T19:57:46;99853.84;;;4.14;100.00
47738;BME280;33502;47.182;27.506;2023-02-19T20:00:17;99865.44;;;4.03;100.00
47738;BME280;33502;47.182;27.506;2023-02-19T20:02:44;99871.78;;;3.93;100.00
47738;BME280;33502;47.182;27.506;2023-02-19T20:05:12;99884.13;;;3.88;100.00
47738;BME280;33502;47.182;27.506;2023-02-19T20:07:37;99882.50;;;3.82;100.00
47738;BME280;33502;47.182;27.506;2023-02-19T20:10:05;99887.88;;;3.76;100.00
47738;BME280;33502;47.182;27.506;2023-02-19T20:12:31;99906.41;;;3.67;100.00
47738;BME280;33502;47.182;27.506;2023-02-19T20:14:56;99903.09;;;3.57;100.00
47738;BME280;33502;47.182;27.506;2023-02-19T20:17:22;99925.00;;;3.53;100.00
47738;BME280;33502;47.182;27.506;2023-02-19T20:19:52;99930.31;;;3.50;100.00
47738;BME280;33502;47.182;27.506;2023-02-19T20:22:18;99935.59;;;3.47;100.00
47738;BME280;33502;47.182;27.506;2023-02-19T20:24:51;99936.53;;;3.44;100.00
47738;BME280;33502;47.182;27.506;2023-02-19T20:27:18;99944.47;;;3.40;100.00
47738;BME280;33502;47.182;27.506;2023-02-19T20:29:45;99941.03;;;3.36;100.00
47738;BME280;33502;47.182;27.506;2023-02-19T20:32:12;99956.00;;;3.31;100.00
47738;BME280;33502;47.182;27.506;2023-02-19T20:34:39;99957.81;;;3.27;100.00
47738;BME280;33502;47.182;27.506;2023-02-19T20:37:05;99966.56;;;3.25;100.00
47738;BME280;33502;47.182;27.506;2023-02-19T20:39:33;99976.19;;;3.23;100.00
47738;BME280;33502;47.182;27.506;2023-02-19T20:41:59;99974.50;;;3.20;100.00
47738;BME280;33502;47.182;27.506;2023-02-19T20:44:28;99975.44;;;3.18;100.00
47738;BME280;33502;47.182;27.506;2023-02-19T20:46:55;99993.75;;;3.16;100.00
47738;BME280;33502;47.182;27.506;2023-02-19T20:49:23;100006.00;;;3.16;100.00
47738;BME280;33502;47.182;27.506;2023-02-19T20:51:58;100012.13;;;3.13;100.00
47738;BME280;33502;47.182;27.506;2023-02-19T20:54:29;100012.16;;;3.11;100.00
47738;BME280;33502;47.182;27.506;2023-02-19T20:56:57;100012.19;;;3.10;100.00